Pedro Leao

Log

Date Workout Score Ave Comments Action
05/08/26 v12123m...1 12,171m 3:24.9 View workout
05/07/26 v3229m...2 12,209m 2:58.9 View workout
05/06/26 v12390m...1 12,401m 3:02.5 View workout
05/05/26 v12154m...1 12,221m 3:04.3 View workout
05/02/26 v16761m...1 16,826m 3:06.8 View workout
04/30/26 v12206m...1 12,218m 3:00.9 View workout
04/29/26 v13201m...1 13,289m 3:29.8 View workout
04/28/26 v8947m...1 8,947m 2:49.0 View workout
04/28/26 v1152m...2 3,249m 3:38.8 View workout
04/25/26 v12398m...1 12,424m 2:51.3 View workout
04/24/26 v12314m...1 12,425m 3:11.5 View workout
04/23/26 v12275m...1 12,285m 3:27.9 View workout
04/22/26 v12250m...1 12,250m 3:40.3 View workout
04/17/26 12:13:01 12,379m 29:36.4 View workout
04/15/26 v7164m...2 12,058m 3:32.7 View workout
04/02/26 18:22 4,015m 2:17.3 View workout
03/21/26 v5:00/r...9 5,373m 2:19.5

Rowed on EXR: EXR | Aerobic Power 1 in Sewer Shortcut, Boston - Aerobic Power 1

View workout
03/14/26 21:12 4,264m 2:29.1 View workout
02/04/26 1:00:04 12,410m 2:25.2 View workout
02/03/26 4000m 18:38.4 2:19.8 View workout
01/20/26 1:02:22 12,081m 2:34.9 View workout
07/03/25 v10:00/r...5 5,750m 2:15.6

Rowed on EXR: EXR | Cadence Drill 2 in Below Boston, Boston - Cadence Drill 2

View workout
07/02/25 v1000m/r...10 10,000m 2:23.8

Rowed on EXR: EXR | Aerobic Capacity 5 in Grand Tour, Henley - Aerobic Capacity 5

View workout
07/02/25 10:24 2,255m 2:18.3

Rowed on EXR: Ramp Test

View workout
06/14/25 6:40 1,272m 2:37.3 View workout